sensor_id;sensor_type;location;lat;lon;timestamp;pressure;altitude;pressure_sealevel;temperature;humidity
13934;BME280;7039;52.168;9.866;2023-05-03T00:01:09;101854.63;;;6.58;74.55
13934;BME280;7039;52.168;9.866;2023-05-03T00:03:38;101846.91;;;6.55;74.33
13934;BME280;7039;52.168;9.866;2023-05-03T00:06:23;101860.66;;;6.61;74.32
13934;BME280;7039;52.168;9.866;2023-05-03T00:08:59;101851.22;;;6.54;74.08
13934;BME280;7039;52.168;9.866;2023-05-03T00:11:27;101845.31;;;6.41;74.54
13934;BME280;7039;52.168;9.866;2023-05-03T00:13:57;101846.22;;;6.39;74.56
13934;BME280;7039;52.168;9.866;2023-05-03T00:16:25;101843.69;;;6.31;75.08
13934;BME280;7039;52.168;9.866;2023-05-03T00:18:56;101850.41;;;6.51;74.28
13934;BME280;7039;52.168;9.866;2023-05-03T00:21:27;101849.59;;;6.42;74.40
13934;BME280;7039;52.168;9.866;2023-05-03T00:23:54;101844.56;;;6.32;74.59
13934;BME280;7039;52.168;9.866;2023-05-03T00:26:20;101852.28;;;6.36;74.30
13934;BME280;7039;52.168;9.866;2023-05-03T00:28:47;101851.38;;;6.39;74.00
13934;BME280;7039;52.168;9.866;2023-05-03T00:31:13;101844.72;;;6.15;74.28
13934;BME280;7039;52.168;9.866;2023-05-03T00:33:40;101846.53;;;6.05;74.85
13934;BME280;7039;52.168;9.866;2023-05-03T00:36:07;101844.75;;;6.10;75.02
13934;BME280;7039;52.168;9.866;2023-05-03T00:38:35;101843.91;;;6.08;74.96
13934;BME280;7039;52.168;9.866;2023-05-03T00:41:02;101848.22;;;6.07;74.92
13934;BME280;7039;52.168;9.866;2023-05-03T00:43:29;101846.63;;;5.93;75.21
13934;BME280;7039;52.168;9.866;2023-05-03T00:45:56;101841.44;;;5.93;75.20
13934;BME280;7039;52.168;9.866;2023-05-03T00:48:22;101834.56;;;5.89;75.51
13934;BME280;7039;52.168;9.866;2023-05-03T00:50:49;101839.72;;;5.93;75.47
13934;BME280;7039;52.168;9.866;2023-05-03T00:53:15;101840.56;;;5.94;75.18
13934;BME280;7039;52.168;9.866;2023-05-03T00:55:44;101855.25;;;5.92;75.26
13934;BME280;7039;52.168;9.866;2023-05-03T00:58:10;101841.44;;;5.90;75.14
13934;BME280;7039;52.168;9.866;2023-05-03T01:00:37;101851.00;;;5.83;75.39
13934;BME280;7039;52.168;9.866;2023-05-03T01:03:03;101843.28;;;5.80;75.39
13934;BME280;7039;52.168;9.866;2023-05-03T01:05:35;101847.59;;;5.79;75.51
13934;BME280;7039;52.168;9.866;2023-05-03T01:08:08;101845.81;;;5.83;75.38
13934;BME280;7039;52.168;9.866;2023-05-03T01:10:41;101840.69;;;5.80;75.22
13934;BME280;7039;52.168;9.866;2023-05-03T01:13:23;101840.69;;;5.81;75.18
13934;BME280;7039;52.168;9.866;2023-05-03T01:15:58;101838.19;;;5.64;75.39
13934;BME280;7039;52.168;9.866;2023-05-03T01:18:29;101844.28;;;5.62;75.64
13934;BME280;7039;52.168;9.866;2023-05-03T01:20:58;101839.97;;;5.59;75.39
13934;BME280;7039;52.168;9.866;2023-05-03T01:23:28;101839.97;;;5.59;75.37
13934;BME280;7039;52.168;9.866;2023-05-03T01:26:13;101836.53;;;5.57;75.73
13934;BME280;7039;52.168;9.866;2023-05-03T01:28:40;101839.22;;;5.45;76.09
13934;BME280;7039;52.168;9.866;2023-05-03T01:31:06;101842.63;;;5.50;75.83
13934;BME280;7039;52.168;9.866;2023-05-03T01:33:39;101847.94;;;5.32;76.59
13934;BME280;7039;52.168;9.866;2023-05-03T01:36:12;101849.56;;;5.43;76.27
13934;BME280;7039;52.168;9.866;2023-05-03T01:38:41;101844.38;;;5.48;75.79
13934;BME280;7039;52.168;9.866;2023-05-03T01:41:11;101841.75;;;5.53;75.60
13934;BME280;7039;52.168;9.866;2023-05-03T01:43:39;101853.84;;;5.52;75.66
13934;BME280;7039;52.168;9.866;2023-05-03T01:46:06;101846.13;;;5.40;75.79
13934;BME280;7039;52.168;9.866;2023-05-03T01:48:32;101850.53;;;5.26;76.40
13934;BME280;7039;52.168;9.866;2023-05-03T01:50:59;101853.09;;;5.32;76.15
13934;BME280;7039;52.168;9.866;2023-05-03T01:53:25;101847.88;;;5.38;75.71
13934;BME280;7039;52.168;9.866;2023-05-03T01:55:52;101848.00;;;5.18;75.85
13934;BME280;7039;52.168;9.866;2023-05-03T01:58:20;101846.25;;;5.23;76.53
13934;BME280;7039;52.168;9.866;2023-05-03T02:00:46;101848.88;;;5.18;76.13
13934;BME280;7039;52.168;9.866;2023-05-03T02:03:13;101851.44;;;5.21;76.43
13934;BME280;7039;52.168;9.866;2023-05-03T02:05:39;101862.66;;;5.20;76.47
13934;BME280;7039;52.168;9.866;2023-05-03T02:08:06;101855.75;;;5.21;76.27
13934;BME280;7039;52.168;9.866;2023-05-03T02:10:33;101857.47;;;5.17;76.37
13934;BME280;7039;52.168;9.866;2023-05-03T02:12:59;101861.84;;;5.06;76.51
13934;BME280;7039;52.168;9.866;2023-05-03T02:15:27;101861.91;;;5.00;76.59
13934;BME280;7039;52.168;9.866;2023-05-03T02:17:54;101862.75;;;5.02;76.53
13934;BME280;7039;52.168;9.866;2023-05-03T02:20:22;101857.56;;;5.05;76.77
13934;BME280;7039;52.168;9.866;2023-05-03T02:22:49;101871.28;;;5.15;76.34
13934;BME280;7039;52.168;9.866;2023-05-03T02:25:15;101861.88;;;5.03;76.08
13934;BME280;7039;52.168;9.866;2023-05-03T02:27:41;101869.59;;;5.08;76.35
13934;BME280;7039;52.168;9.866;2023-05-03T02:30:08;101869.59;;;5.06;76.40
13934;BME280;7039;52.168;9.866;2023-05-03T02:32:36;101871.34;;;4.99;76.45
13934;BME280;7039;52.168;9.866;2023-05-03T02:35:03;101878.25;;;5.05;76.19
13934;BME280;7039;52.168;9.866;2023-05-03T02:37:30;101875.72;;;4.90;76.49
13934;BME280;7039;52.168;9.866;2023-05-03T02:39:57;101869.72;;;4.72;77.22
13934;BME280;7039;52.168;9.866;2023-05-03T02:42:23;101882.66;;;4.80;77.13
13934;BME280;7039;52.168;9.866;2023-05-03T02:44:50;101881.78;;;4.76;77.18
13934;BME280;7039;52.168;9.866;2023-05-03T02:47:17;101882.63;;;4.83;76.80
13934;BME280;7039;52.168;9.866;2023-05-03T02:49:45;101880.94;;;4.70;76.65
13934;BME280;7039;52.168;9.866;2023-05-03T02:52:12;101885.25;;;4.72;77.06
13934;BME280;7039;52.168;9.866;2023-05-03T02:54:38;101887.84;;;4.75;76.68
13934;BME280;7039;52.168;9.866;2023-05-03T02:57:05;101880.09;;;4.63;76.50
13934;BME280;7039;52.168;9.866;2023-05-03T02:59:31;101883.53;;;4.70;76.86
13934;BME280;7039;52.168;9.866;2023-05-03T03:01:58;101893.00;;;4.71;76.63
13934;BME280;7039;52.168;9.866;2023-05-03T03:04:24;101888.72;;;4.60;77.01
13934;BME280;7039;52.168;9.866;2023-05-03T03:06:52;101892.16;;;4.63;76.88
13934;BME280;7039;52.168;9.866;2023-05-03T03:09:20;101890.47;;;4.57;76.97
13934;BME280;7039;52.168;9.866;2023-05-03T03:11:50;101891.31;;;4.64;76.74
13934;BME280;7039;52.168;9.866;2023-05-03T03:14:17;101898.16;;;4.68;76.97
13934;BME280;7039;52.168;9.866;2023-05-03T03:16:44;101897.31;;;4.67;76.60
13934;BME280;7039;52.168;9.866;2023-05-03T03:19:10;101898.22;;;4.62;76.83
13934;BME280;7039;52.168;9.866;2023-05-03T03:21:37;101892.16;;;4.56;76.96
13934;BME280;7039;52.168;9.866;2023-05-03T03:24:06;101903.34;;;4.63;76.75
13934;BME280;7039;52.168;9.866;2023-05-03T03:26:32;101899.94;;;4.66;76.17
13934;BME280;7039;52.168;9.866;2023-05-03T03:28:59;101901.66;;;4.64;76.82
13934;BME280;7039;52.168;9.866;2023-05-03T03:31:26;101896.47;;;4.62;76.67
13934;BME280;7039;52.168;9.866;2023-05-03T03:33:52;101900.81;;;4.57;76.76
13934;BME280;7039;52.168;9.866;2023-05-03T03:36:19;101905.09;;;4.58;76.25
13934;BME280;7039;52.168;9.866;2023-05-03T03:38:45;101899.91;;;4.56;76.41
13934;BME280;7039;52.168;9.866;2023-05-03T03:41:13;101899.09;;;4.51;76.55
13934;BME280;7039;52.168;9.866;2023-05-03T03:43:40;101897.34;;;4.52;76.35
13934;BME280;7039;52.168;9.866;2023-05-03T03:46:06;101892.22;;;4.46;76.57
13934;BME280;7039;52.168;9.866;2023-05-03T03:48:33;101898.25;;;4.46;76.39
13934;BME280;7039;52.168;9.866;2023-05-03T03:50:59;101899.13;;;4.39;76.85
13934;BME280;7039;52.168;9.866;2023-05-03T03:53:25;101901.66;;;4.47;76.69
13934;BME280;7039;52.168;9.866;2023-05-03T03:55:52;101905.97;;;4.49;76.64
13934;BME280;7039;52.168;9.866;2023-05-03T03:58:20;101898.25;;;4.31;77.30
13934;BME280;7039;52.168;9.866;2023-05-03T04:00:46;101903.38;;;4.49;76.68
13934;BME280;7039;52.168;9.866;2023-05-03T04:03:14;101905.09;;;4.52;76.42
13934;BME280;7039;52.168;9.866;2023-05-03T04:05:40;101899.09;;;4.47;76.39
13934;BME280;7039;52.168;9.866;2023-05-03T04:08:07;101899.09;;;4.44;76.19
13934;BME280;7039;52.168;9.866;2023-05-03T04:10:33;101898.25;;;4.43;76.31
13934;BME280;7039;52.168;9.866;2023-05-03T04:13:00;101895.66;;;4.42;76.45
13934;BME280;7039;52.168;9.866;2023-05-03T04:15:28;101893.91;;;4.47;76.38
13934;BME280;7039;52.168;9.866;2023-05-03T04:17:54;101899.09;;;4.44;76.68
13934;BME280;7039;52.168;9.866;2023-05-03T04:20:21;101897.38;;;4.46;76.85
13934;BME280;7039;52.168;9.866;2023-05-03T04:22:47;101891.34;;;4.42;77.04
13934;BME280;7039;52.168;9.866;2023-05-03T04:25:14;101894.78;;;4.53;77.05
13934;BME280;7039;52.168;9.866;2023-05-03T04:27:41;101899.06;;;4.60;76.73
13934;BME280;7039;52.168;9.866;2023-05-03T04:30:08;101897.34;;;4.66;76.96
13934;BME280;7039;52.168;9.866;2023-05-03T04:32:37;101915.41;;;4.79;76.47
13934;BME280;7039;52.168;9.866;2023-05-03T04:35:05;101908.50;;;4.78;76.38
13934;BME280;7039;52.168;9.866;2023-05-03T04:37:33;101910.22;;;4.72;76.54
13934;BME280;7039;52.168;9.866;2023-05-03T04:40:00;101912.00;;;4.59;76.94
13934;BME280;7039;52.168;9.866;2023-05-03T04:42:27;101911.13;;;4.66;77.15
13934;BME280;7039;52.168;9.866;2023-05-03T04:44:54;101923.16;;;4.78;77.36
13934;BME280;7039;52.168;9.866;2023-05-03T04:47:20;101914.47;;;4.88;76.84
13934;BME280;7039;52.168;9.866;2023-05-03T04:49:48;101919.66;;;4.91;76.88
13934;BME280;7039;52.168;9.866;2023-05-03T04:52:15;101919.66;;;4.91;76.96
13934;BME280;7039;52.168;9.866;2023-05-03T04:54:41;101917.91;;;4.98;76.86
13934;BME280;7039;52.168;9.866;2023-05-03T04:57:08;101917.03;;;5.05;77.01
13934;BME280;7039;52.168;9.866;2023-05-03T04:59:34;101917.00;;;5.11;76.71
13934;BME280;7039;52.168;9.866;2023-05-03T05:02:01;101916.94;;;5.22;76.51
13934;BME280;7039;52.168;9.866;2023-05-03T05:04:27;101924.63;;;5.37;76.06
13934;BME280;7039;52.168;9.866;2023-05-03T05:06:55;101927.16;;;5.53;75.77
13934;BME280;7039;52.168;9.866;2023-05-03T05:09:24;101920.28;;;5.42;75.70
13934;BME280;7039;52.168;9.866;2023-05-03T05:11:51;101928.84;;;5.55;76.08
13934;BME280;7039;52.168;9.866;2023-05-03T05:14:18;101915.00;;;5.65;75.59
13934;BME280;7039;52.168;9.866;2023-05-03T05:16:44;101914.97;;;5.69;75.58
13934;BME280;7039;52.168;9.866;2023-05-03T05:19:11;101922.72;;;5.75;75.60
13934;BME280;7039;52.168;9.866;2023-05-03T05:21:38;101929.53;;;5.85;75.58
13934;BME280;7039;52.168;9.866;2023-05-03T05:24:06;101929.50;;;5.90;75.90
13934;BME280;7039;52.168;9.866;2023-05-03T05:26:32;101930.41;;;5.84;76.02
13934;BME280;7039;52.168;9.866;2023-05-03T05:28:59;101934.72;;;5.82;76.69
13934;BME280;7039;52.168;9.866;2023-05-03T05:31:25;101941.63;;;5.86;76.96
13934;BME280;7039;52.168;9.866;2023-05-03T05:33:52;101942.44;;;5.94;76.57
13934;BME280;7039;52.168;9.866;2023-05-03T05:36:18;101941.59;;;5.95;76.58
13934;BME280;7039;52.168;9.866;2023-05-03T05:38:45;101950.09;;;6.08;76.35
13934;BME280;7039;52.168;9.866;2023-05-03T05:41:13;101956.06;;;6.19;76.62
13934;BME280;7039;52.168;9.866;2023-05-03T05:43:39;101958.63;;;6.24;76.23
13934;BME280;7039;52.168;9.866;2023-05-03T05:46:06;101960.19;;;6.40;76.07
13934;BME280;7039;52.168;9.866;2023-05-03T05:48:32;101973.91;;;6.53;75.88
13934;BME280;7039;52.168;9.866;2023-05-03T05:50:59;101960.03;;;6.60;75.47
13934;BME280;7039;52.168;9.866;2023-05-03T05:53:25;101959.16;;;6.60;75.65
13934;BME280;7039;52.168;9.866;2023-05-03T05:55:52;101958.22;;;6.70;75.39
13934;BME280;7039;52.168;9.866;2023-05-03T05:58:20;101971.94;;;6.78;75.42
13934;BME280;7039;52.168;9.866;2023-05-03T06:00:47;101965.88;;;6.81;75.52
13934;BME280;7039;52.168;9.866;2023-05-03T06:03:13;101969.34;;;6.80;75.49
13934;BME280;7039;52.168;9.866;2023-05-03T06:05:40;101958.75;;;7.00;75.39
13934;BME280;7039;52.168;9.866;2023-05-03T06:08:07;101963.81;;;7.10;75.07
13934;BME280;7039;52.168;9.866;2023-05-03T06:10:33;101968.88;;;7.21;74.81
13934;BME280;7039;52.168;9.866;2023-05-03T06:13:00;101968.72;;;7.35;74.92
13934;BME280;7039;52.168;9.866;2023-05-03T06:15:29;101963.38;;;7.46;74.78
13934;BME280;7039;52.168;9.866;2023-05-03T06:17:55;101963.56;;;7.30;75.36
13934;BME280;7039;52.168;9.866;2023-05-03T06:20:22;101960.78;;;7.47;74.81
13934;BME280;7039;52.168;9.866;2023-05-03T06:22:49;101963.31;;;7.52;74.20
13934;BME280;7039;52.168;9.866;2023-05-03T06:25:16;101960.84;;;7.43;74.51
13934;BME280;7039;52.168;9.866;2023-05-03T06:27:42;101966.75;;;7.54;74.33
13934;BME280;7039;52.168;9.866;2023-05-03T06:30:10;101973.88;;;7.38;74.23
13934;BME280;7039;52.168;9.866;2023-05-03T06:32:40;101982.09;;;7.71;72.71
13934;BME280;7039;52.168;9.866;2023-05-03T06:35:07;101978.59;;;7.72;72.71
13934;BME280;7039;52.168;9.866;2023-05-03T06:37:34;101987.88;;;7.90;72.67
13934;BME280;7039;52.168;9.866;2023-05-03T06:40:01;101986.03;;;8.00;72.47
13934;BME280;7039;52.168;9.866;2023-05-03T06:42:27;101983.03;;;7.65;72.97
13934;BME280;7039;52.168;9.866;2023-05-03T06:44:54;101981.84;;;7.88;71.10
13934;BME280;7039;52.168;9.866;2023-05-03T06:47:20;101984.41;;;7.91;70.82
13934;BME280;7039;52.168;9.866;2023-05-03T06:49:48;101987.84;;;7.93;70.69
13934;BME280;7039;52.168;9.866;2023-05-03T06:52:15;101983.44;;;7.98;71.81
13934;BME280;7039;52.168;9.866;2023-05-03T06:54:42;101984.88;;;8.18;70.02
13934;BME280;7039;52.168;9.866;2023-05-03T06:57:08;101988.34;;;8.15;69.23
13934;BME280;7039;52.168;9.866;2023-05-03T06:59:35;101992.56;;;8.24;69.59
13934;BME280;7039;52.168;9.866;2023-05-03T07:02:02;101987.06;;;8.45;69.29
13934;BME280;7039;52.168;9.866;2023-05-03T07:04:28;101980.34;;;8.29;69.41
13934;BME280;7039;52.168;9.866;2023-05-03T07:06:56;101979.31;;;8.39;68.64
13934;BME280;7039;52.168;9.866;2023-05-03T07:09:23;101989.44;;;8.56;69.08
13934;BME280;7039;52.168;9.866;2023-05-03T07:11:49;101982.63;;;8.50;67.82
13934;BME280;7039;52.168;9.866;2023-05-03T07:14:16;101981.56;;;8.62;67.72
13934;BME280;7039;52.168;9.866;2023-05-03T07:16:42;101990.78;;;8.80;67.96
13934;BME280;7039;52.168;9.866;2023-05-03T07:19:09;101981.72;;;8.53;66.38
13934;BME280;7039;52.168;9.866;2023-05-03T07:21:35;101974.75;;;8.55;66.49
13934;BME280;7039;52.168;9.866;2023-05-03T07:24:03;101984.66;;;8.83;65.88
13934;BME280;7039;52.168;9.866;2023-05-03T07:26:31;101980.91;;;8.97;65.77
13934;BME280;7039;52.168;9.866;2023-05-03T07:28:57;101985.38;;;8.91;65.52
13934;BME280;7039;52.168;9.866;2023-05-03T07:31:25;101979.91;;;9.05;66.02
13934;BME280;7039;52.168;9.866;2023-05-03T07:33:51;101980.84;;;9.02;65.24
13934;BME280;7039;52.168;9.866;2023-05-03T07:36:18;101974.88;;;8.95;63.14
13934;BME280;7039;52.168;9.866;2023-05-03T07:38:44;101975.41;;;9.13;63.70
13934;BME280;7039;52.168;9.866;2023-05-03T07:41:12;101974.50;;;9.56;62.74
13934;BME280;7039;52.168;9.866;2023-05-03T07:43:38;101969.16;;;9.64;62.59
13934;BME280;7039;52.168;9.866;2023-05-03T07:46:05;101977.28;;;10.24;61.74
13934;BME280;7039;52.168;9.866;2023-05-03T07:48:31;101972.91;;;10.27;60.90
13934;BME280;7039;52.168;9.866;2023-05-03T07:50:58;101966.63;;;10.70;59.87
13934;BME280;7039;52.168;9.866;2023-05-03T07:53:24;101963.91;;;10.73;57.07
13934;BME280;7039;52.168;9.866;2023-05-03T07:55:52;101957.91;;;10.36;56.57
13934;BME280;7039;52.168;9.866;2023-05-03T07:58:21;101964.88;;;10.69;56.06
13934;BME280;7039;52.168;9.866;2023-05-03T08:00:47;101959.97;;;10.91;55.19
13934;BME280;7039;52.168;9.866;2023-05-03T08:03:13;101965.09;;;11.25;55.43
13934;BME280;7039;52.168;9.866;2023-05-03T08:05:40;101961.78;;;11.76;55.19
13934;BME280;7039;52.168;9.866;2023-05-03T08:08:07;101960.59;;;11.88;55.14
13934;BME280;7039;52.168;9.866;2023-05-03T08:10:34;101960.16;;;12.28;54.08
13934;BME280;7039;52.168;9.866;2023-05-03T08:13:02;101958.91;;;12.14;52.90
13934;BME280;7039;52.168;9.866;2023-05-03T08:15:31;101960.41;;;12.47;51.72
13934;BME280;7039;52.168;9.866;2023-05-03T08:17:57;101960.03;;;12.83;51.17
13934;BME280;7039;52.168;9.866;2023-05-03T08:20:24;101961.22;;;12.98;50.76
13934;BME280;7039;52.168;9.866;2023-05-03T08:22:51;101950.22;;;12.13;51.59
13934;BME280;7039;52.168;9.866;2023-05-03T08:25:18;101950.84;;;11.93;52.46
13934;BME280;7039;52.168;9.866;2023-05-03T08:27:46;101951.22;;;12.09;51.27
13934;BME280;7039;52.168;9.866;2023-05-03T08:30:13;101954.03;;;12.29;52.04
13934;BME280;7039;52.168;9.866;2023-05-03T08:32:41;101946.97;;;12.05;52.76
13934;BME280;7039;52.168;9.866;2023-05-03T08:35:08;101947.88;;;12.30;53.37
13934;BME280;7039;52.168;9.866;2023-05-03T08:37:38;101955.69;;;12.57;53.17
13934;BME280;7039;52.168;9.866;2023-05-03T08:40:06;101954.22;;;12.23;50.92
13934;BME280;7039;52.168;9.866;2023-05-03T08:42:37;101941.41;;;12.16;50.18
13934;BME280;7039;52.168;9.866;2023-05-03T08:45:05;101943.16;;;11.87;51.99
13934;BME280;7039;52.168;9.866;2023-05-03T08:47:34;101947.22;;;11.69;53.00
13934;BME280;7039;52.168;9.866;2023-05-03T08:50:04;101950.28;;;12.10;52.31
13934;BME280;7039;52.168;9.866;2023-05-03T08:52:32;101940.25;;;11.98;52.70
13934;BME280;7039;52.168;9.866;2023-05-03T08:54:59;101951.72;;;11.64;51.29
13934;BME280;7039;52.168;9.866;2023-05-03T08:57:26;101948.44;;;11.57;53.86
13934;BME280;7039;52.168;9.866;2023-05-03T08:59:53;101945.31;;;12.02;52.55
13934;BME280;7039;52.168;9.866;2023-05-03T09:02:22;101940.88;;;12.06;52.07
13934;BME280;7039;52.168;9.866;2023-05-03T09:04:49;101934.66;;;11.80;51.62
13934;BME280;7039;52.168;9.866;2023-05-03T09:07:17;101940.00;;;11.77;52.44
13934;BME280;7039;52.168;9.866;2023-05-03T09:09:44;101943.75;;;11.68;53.78
13934;BME280;7039;52.168;9.866;2023-05-03T09:12:11;101944.66;;;11.67;51.99
13934;BME280;7039;52.168;9.866;2023-05-03T09:14:41;101936.66;;;11.44;53.55
13934;BME280;7039;52.168;9.866;2023-05-03T09:17:16;101927.72;;;11.51;51.96
13934;BME280;7039;52.168;9.866;2023-05-03T09:19:51;101930.47;;;11.46;52.72
13934;BME280;7039;52.168;9.866;2023-05-03T09:22:20;101933.50;;;11.33;51.72
13934;BME280;7039;52.168;9.866;2023-05-03T09:24:50;101932.59;;;11.63;52.67
13934;BME280;7039;52.168;9.866;2023-05-03T09:27:17;101934.88;;;12.02;53.36
13934;BME280;7039;52.168;9.866;2023-05-03T09:29:45;101926.38;;;11.96;53.72
13934;BME280;7039;52.168;9.866;2023-05-03T09:32:12;101926.69;;;12.38;51.88
13934;BME280;7039;52.168;9.866;2023-05-03T09:34:38;101915.19;;;12.17;51.77
13934;BME280;7039;52.168;9.866;2023-05-03T09:37:05;101926.97;;;11.76;52.08
13934;BME280;7039;52.168;9.866;2023-05-03T09:39:33;101929.72;;;11.71;53.12
13934;BME280;7039;52.168;9.866;2023-05-03T09:42:09;101926.81;;;11.80;53.42
13934;BME280;7039;52.168;9.866;2023-05-03T09:44:41;101931.25;;;11.50;52.30
13934;BME280;7039;52.168;9.866;2023-05-03T09:47:08;101928.63;;;11.78;53.45
13934;BME280;7039;52.168;9.866;2023-05-03T09:49:35;101926.66;;;11.85;53.05
13934;BME280;7039;52.168;9.866;2023-05-03T09:52:02;101923.75;;;11.96;52.53
13934;BME280;7039;52.168;9.866;2023-05-03T09:54:30;101920.03;;;12.03;52.80
13934;BME280;7039;52.168;9.866;2023-05-03T09:56:59;101912.69;;;12.14;52.63
13934;BME280;7039;52.168;9.866;2023-05-03T09:59:27;101917.88;;;12.16;55.11
13934;BME280;7039;52.168;9.866;2023-05-03T10:01:55;101915.31;;;12.39;53.10
13934;BME280;7039;52.168;9.866;2023-05-03T10:04:24;101917.91;;;12.89;51.41
13934;BME280;7039;52.168;9.866;2023-05-03T10:06:53;101912.78;;;13.10;50.23
13934;BME280;7039;52.168;9.866;2023-05-03T10:09:29;101912.97;;;13.29;51.98
13934;BME280;7039;52.168;9.866;2023-05-03T10:11:59;101908.53;;;13.31;51.38
13934;BME280;7039;52.168;9.866;2023-05-03T10:14:27;101917.91;;;13.36;48.09
13934;BME280;7039;52.168;9.866;2023-05-03T10:16:57;101905.78;;;13.10;51.44
13934;BME280;7039;52.168;9.866;2023-05-03T10:19:29;101908.78;;;13.23;48.96
13934;BME280;7039;52.168;9.866;2023-05-03T10:22:02;101902.41;;;13.07;48.85
13934;BME280;7039;52.168;9.866;2023-05-03T10:24:29;101905.78;;;13.34;48.87
13934;BME280;7039;52.168;9.866;2023-05-03T10:26:56;101904.56;;;13.87;49.71
13934;BME280;7039;52.168;9.866;2023-05-03T10:29:46;101910.41;;;14.36;50.66
13934;BME280;7039;52.168;9.866;2023-05-03T10:32:33;101904.09;;;14.19;49.72
13934;BME280;7039;52.168;9.866;2023-05-03T10:35:01;101900.00;;;14.12;50.51
13934;BME280;7039;52.168;9.866;2023-05-03T10:37:31;101907.31;;;14.26;49.16
13934;BME280;7039;52.168;9.866;2023-05-03T10:40:05;101894.84;;;14.11;49.72
13934;BME280;7039;52.168;9.866;2023-05-03T10:42:31;101888.44;;;13.96;48.27
13934;BME280;7039;52.168;9.866;2023-05-03T10:45:00;101893.84;;;14.13;47.62
13934;BME280;7039;52.168;9.866;2023-05-03T10:47:27;101887.06;;;14.49;49.65
13934;BME280;7039;52.168;9.866;2023-05-03T10:50:25;101895.22;;;14.83;49.27
13934;BME280;7039;52.168;9.866;2023-05-03T10:52:52;101889.50;;;14.53;46.68
13934;BME280;7039;52.168;9.866;2023-05-03T10:55:20;101887.22;;;14.66;48.78
13934;BME280;7039;52.168;9.866;2023-05-03T10:57:50;101892.59;;;14.43;47.95
13934;BME280;7039;52.168;9.866;2023-05-03T11:00:22;101884.13;;;13.95;49.03
13934;BME280;7039;52.168;9.866;2023-05-03T11:05:52;101888.19;;;14.02;49.43
13934;BME280;7039;52.168;9.866;2023-05-03T11:08:19;101883.50;;;14.10;47.25
13934;BME280;7039;52.168;9.866;2023-05-03T11:10:47;101886.03;;;14.53;48.20
13934;BME280;7039;52.168;9.866;2023-05-03T11:13:14;101880.50;;;14.79;48.04
13934;BME280;7039;52.168;9.866;2023-05-03T11:15:42;101873.91;;;15.09;45.80
13934;BME280;7039;52.168;9.866;2023-05-03T11:18:09;101869.81;;;15.39;46.33
13934;BME280;7039;52.168;9.866;2023-05-03T11:20:36;101859.13;;;15.61;46.42
13934;BME280;7039;52.168;9.866;2023-05-03T11:23:03;101860.63;;;15.67;47.11
13934;BME280;7039;52.168;9.866;2023-05-03T11:25:31;101861.88;;;15.41;46.94
13934;BME280;7039;52.168;9.866;2023-05-03T11:27:58;101860.97;;;15.78;47.49
13934;BME280;7039;52.168;9.866;2023-05-03T11:30:25;101861.19;;;15.91;47.31
13934;BME280;7039;52.168;9.866;2023-05-03T11:32:53;101857.88;;;16.05;47.04
13934;BME280;7039;52.168;9.866;2023-05-03T11:35:20;101870.00;;;16.25;46.67
13934;BME280;7039;52.168;9.866;2023-05-03T11:37:48;101862.03;;;16.26;46.04
13934;BME280;7039;52.168;9.866;2023-05-03T11:40:15;101861.69;;;16.33;45.06
13934;BME280;7039;52.168;9.866;2023-05-03T11:42:52;101854.19;;;16.42;45.79
13934;BME280;7039;52.168;9.866;2023-05-03T11:45:20;101853.59;;;15.85;45.61
13934;BME280;7039;52.168;9.866;2023-05-03T11:47:47;101853.75;;;15.82;43.89
13934;BME280;7039;52.168;9.866;2023-05-03T11:50:15;101849.59;;;16.13;45.97
13934;BME280;7039;52.168;9.866;2023-05-03T11:52:43;101851.09;;;16.67;45.26
13934;BME280;7039;52.168;9.866;2023-05-03T11:55:10;101856.03;;;16.74;41.92
13934;BME280;7039;52.168;9.866;2023-05-03T11:57:37;101848.81;;;16.77;43.80
13934;BME280;7039;52.168;9.866;2023-05-03T12:00:10;101849.44;;;16.82;45.01
13934;BME280;7039;52.168;9.866;2023-05-03T12:02:38;101853.38;;;17.23;43.21
13934;BME280;7039;52.168;9.866;2023-05-03T12:05:07;101846.22;;;17.41;43.03
13934;BME280;7039;52.168;9.866;2023-05-03T12:07:35;101850.19;;;17.48;42.20
13934;BME280;7039;52.168;9.866;2023-05-03T12:10:11;101847.38;;;17.83;41.88
13934;BME280;7039;52.168;9.866;2023-05-03T12:12:38;101839.00;;;18.05;41.77
13934;BME280;7039;52.168;9.866;2023-05-03T12:15:06;101836.75;;;18.13;42.03
13934;BME280;7039;52.168;9.866;2023-05-03T12:17:35;101829.81;;;17.66;43.09
13934;BME280;7039;52.168;9.866;2023-05-03T12:20:15;101831.38;;;17.24;41.91
13934;BME280;7039;52.168;9.866;2023-05-03T12:22:43;101824.28;;;17.70;41.75
13934;BME280;7039;52.168;9.866;2023-05-03T12:25:10;101817.63;;;17.79;40.69
13934;BME280;7039;52.168;9.866;2023-05-03T12:27:36;101809.53;;;17.82;41.29
13934;BME280;7039;52.168;9.866;2023-05-03T12:30:04;101814.34;;;17.60;42.08
13934;BME280;7039;52.168;9.866;2023-05-03T12:32:30;101801.88;;;18.22;42.65
13934;BME280;7039;52.168;9.866;2023-05-03T12:34:57;101802.28;;;18.30;41.91
13934;BME280;7039;52.168;9.866;2023-05-03T12:37:23;101795.56;;;18.53;42.42
13934;BME280;7039;52.168;9.866;2023-05-03T12:39:51;101790.06;;;17.99;42.92
13934;BME280;7039;52.168;9.866;2023-05-03T12:42:18;101798.84;;;18.57;41.37
13934;BME280;7039;52.168;9.866;2023-05-03T12:44:44;101791.47;;;18.76;39.93
13934;BME280;7039;52.168;9.866;2023-05-03T12:47:11;101795.69;;;19.48;41.53
13934;BME280;7039;52.168;9.866;2023-05-03T12:49:40;101788.72;;;19.59;39.57
13934;BME280;7039;52.168;9.866;2023-05-03T12:52:07;101793.56;;;20.31;39.44
13934;BME280;7039;52.168;9.866;2023-05-03T12:54:34;101784.22;;;20.38;39.82
13934;BME280;7039;52.168;9.866;2023-05-03T12:57:02;101781.06;;;20.20;38.84
13934;BME280;7039;52.168;9.866;2023-05-03T12:59:28;101772.88;;;19.32;39.76
13934;BME280;7039;52.168;9.866;2023-05-03T13:01:55;101774.91;;;20.07;39.85
13934;BME280;7039;52.168;9.866;2023-05-03T13:04:22;101783.78;;;20.44;38.63
13934;BME280;7039;52.168;9.866;2023-05-03T13:06:48;101789.94;;;21.19;38.15
13934;BME280;7039;52.168;9.866;2023-05-03T13:09:15;101788.28;;;22.00;36.82
13934;BME280;7039;52.168;9.866;2023-05-03T13:11:43;101783.00;;;21.53;37.20
13934;BME280;7039;52.168;9.866;2023-05-03T13:14:11;101768.28;;;19.61;37.46